PWSweather.com
Personal Weather Stations
Station Observations
STEFBZH56
PontScorff, PontScorffFR

PontScorffPontScorffFR

Lat: 47.831518, Lon: -3.4222200000000385

Elevation: 141

Station Type: Oregon WMR200

http://www.meteo-pontscorff.fr

Latest ConditionsUpdated 6:45:00 AM GMT+01:01 Monday, Sep 23, 2019
Currently Today's Max Today's Min Today's Average
Temperature 58.5°F14.7°C 58.5°F14.7°C 53.6°F12.0°C 55.8°F13.2°C
Dew Point 57.9°F14.4°C 57.9°F14.4°C 53.0°F11.7°C 55.2°F12.9°C
Winds 1.8 mph S2.9 kmh S 2.3 mph -3.7 kmh - - 0.6 mph 1.0 kmh
Wind Gusts 3.6 mph5.8 kmh 5.1 mph8.2 kmh - -
Humidity 98% 98% 98% 98%
Pressure 29.89 in1012.2 mb 29.92 in1013.2 mb 29.86 in1011.2 mb -
Hour Temp Dew Point Humidity Winds Wind Gusts Pressure Precip Precip Rate Daily Precip Total
06:45 AM 58.5°F14.7°C 57.9°F14.4°C 98% 1.8 mph S2.9 kmh S 3.6 mph5.8 kmh 29.89 in1012.2 mb 0.00 in0.0 mm 0.00 in0.0 mm 0.00 in0.0 mm
06:40 AM 58.5°F14.7°C 57.9°F14.4°C 98% 1.9 mph SSE3.1 kmh SSE 3.8 mph6.1 kmh 29.89 in1012.2 mb 0.00 in0.0 mm 0.00 in0.0 mm 0.00 in0.0 mm
06:35 AM 58.4°F14.7°C 57.9°F14.4°C 98% 2.0 mph SW3.2 kmh SW 3.8 mph6.1 kmh 29.89 in1012.2 mb 0.00 in0.0 mm 0.00 in0.0 mm 0.00 in0.0 mm
06:30 AM 58.4°F14.7°C 57.8°F14.3°C 98% 1.8 mph S2.9 kmh S 3.8 mph6.1 kmh 29.89 in1012.2 mb 0.00 in0.0 mm 0.00 in0.0 mm 0.00 in0.0 mm
06:25 AM 58.3°F14.6°C 57.7°F14.3°C 98% 2.3 mph SE3.7 kmh SE 5.1 mph8.2 kmh 29.89 in1012.2 mb 0.00 in0.0 mm 0.00 in0.0 mm 0.00 in0.0 mm
06:20 AM 58.1°F14.5°C 57.5°F14.2°C 98% 1.6 mph S2.6 kmh S 2.9 mph4.7 kmh 29.89 in1012.2 mb 0.00 in0.0 mm 0.00 in0.0 mm 0.00 in0.0 mm
06:15 AM 58.0°F14.4°C 57.5°F14.2°C 98% 1.5 mph SSE2.4 kmh SSE 3.8 mph6.1 kmh 29.89 in1012.2 mb 0.00 in0.0 mm 0.00 in0.0 mm 0.00 in0.0 mm
06:10 AM 57.9°F14.4°C 57.4°F14.1°C 98% 0.8 mph SSE1.3 kmh SSE 2.9 mph4.7 kmh 29.89 in1012.2 mb 0.00 in0.0 mm 0.00 in0.0 mm 0.00 in0.0 mm
06:05 AM 57.9°F14.4°C 57.4°F14.1°C 98% 1.5 mph SE2.4 kmh SE 3.8 mph6.1 kmh 29.89 in1012.2 mb 0.00 in0.0 mm 0.00 in0.0 mm 0.00 in0.0 mm
06:00 AM 57.9°F14.4°C 57.3°F14.1°C 98% 0.6 mph SSE1.0 kmh SSE 3.4 mph5.5 kmh 29.89 in1012.2 mb 0.00 in0.0 mm 0.00 in0.0 mm 0.00 in0.0 mm
05:55 AM 57.8°F14.3°C 57.2°F14.0°C 98% 1.4 mph SE2.3 kmh SE 2.9 mph4.7 kmh 29.89 in1012.2 mb 0.00 in0.0 mm 0.00 in0.0 mm 0.00 in0.0 mm
05:50 AM 57.7°F14.3°C 57.2°F14.0°C 98% 0.9 mph SE1.4 kmh SE 3.8 mph6.1 kmh 29.89 in1012.2 mb 0.00 in0.0 mm 0.00 in0.0 mm 0.00 in0.0 mm
05:45 AM 57.7°F14.3°C 57.1°F13.9°C 98% 0.6 mph SE1.0 kmh SE 2.9 mph4.7 kmh 29.89 in1012.2 mb 0.00 in0.0 mm 0.00 in0.0 mm 0.00 in0.0 mm
05:40 AM 57.5°F14.2°C 57.0°F13.9°C 98% 1.4 mph SSE2.3 kmh SSE 4.0 mph6.4 kmh 29.89 in1012.2 mb 0.00 in0.0 mm 0.00 in0.0 mm 0.00 in0.0 mm
05:35 AM 57.3°F14.1°C 56.7°F13.7°C 98% 0.6 mph SE1.0 kmh SE 1.3 mph2.1 kmh 29.90 in1012.5 mb 0.00 in0.0 mm 0.00 in0.0 mm 0.00 in0.0 mm
05:30 AM 57.2°F14.0°C 56.6°F13.7°C 98% 0.4 mph SSE0.6 kmh SSE 1.3 mph2.1 kmh 29.92 in1013.2 mb 0.00 in0.0 mm 0.00 in0.0 mm 0.00 in0.0 mm
05:25 AM 57.0°F13.9°C 56.5°F13.6°C 98% 0.7 mph SE1.1 kmh SE 2.0 mph3.2 kmh 29.92 in1013.2 mb 0.00 in0.0 mm 0.00 in0.0 mm 0.00 in0.0 mm
05:20 AM 56.9°F13.8°C 56.4°F13.6°C 98% 0.2 mph SE0.3 kmh SE 1.8 mph2.9 kmh 29.92 in1013.2 mb 0.00 in0.0 mm 0.00 in0.0 mm 0.00 in0.0 mm
05:15 AM 56.9°F13.8°C 56.3°F13.5°C 98% 0.6 mph SSE1.0 kmh SSE 3.8 mph6.1 kmh 29.92 in1013.2 mb 0.00 in0.0 mm 0.00 in0.0 mm 0.00 in0.0 mm
05:10 AM 57.0°F13.9°C 56.5°F13.6°C 98% 0.5 mph SE0.8 kmh SE 2.9 mph4.7 kmh 29.92 in1013.2 mb 0.00 in0.0 mm 0.00 in0.0 mm 0.00 in0.0 mm
05:05 AM 56.9°F13.8°C 56.4°F13.6°C 98% 1.2 mph SSE1.9 kmh SSE 2.9 mph4.7 kmh 29.92 in1013.2 mb 0.00 in0.0 mm 0.00 in0.0 mm 0.00 in0.0 mm
05:00 AM 56.7°F13.7°C 56.2°F13.4°C 98% 0.9 mph ESE1.4 kmh ESE 4.0 mph6.4 kmh 29.92 in1013.2 mb 0.00 in0.0 mm 0.00 in0.0 mm 0.00 in0.0 mm
04:55 AM 56.6°F13.7°C 56.1°F13.4°C 98% 0.6 mph ESE1.0 kmh ESE 2.9 mph4.7 kmh 29.92 in1013.2 mb 0.00 in0.0 mm 0.00 in0.0 mm 0.00 in0.0 mm
04:50 AM 56.5°F13.6°C 55.9°F13.3°C 98% 0.4 mph ESE0.6 kmh ESE 2.7 mph4.3 kmh 29.91 in1012.9 mb 0.00 in0.0 mm 0.00 in0.0 mm 0.00 in0.0 mm
04:45 AM 56.4°F13.6°C 55.8°F13.2°C 98% 0.9 mph SE1.4 kmh SE 2.5 mph4.0 kmh 29.89 in1012.2 mb 0.00 in0.0 mm 0.00 in0.0 mm 0.00 in0.0 mm
04:40 AM 56.3°F13.5°C 55.8°F13.2°C 98% Calm Calm -- 29.89 in1012.2 mb 0.00 in0.0 mm 0.00 in0.0 mm 0.00 in0.0 mm
04:35 AM 56.5°F13.6°C 55.9°F13.3°C 98% 0.2 mph SE0.3 kmh SE 1.3 mph2.1 kmh 29.89 in1012.2 mb 0.00 in0.0 mm 0.00 in0.0 mm 0.00 in0.0 mm
04:30 AM 56.5°F13.6°C 55.9°F13.3°C 98% 0.8 mph SE1.3 kmh SE 3.8 mph6.1 kmh 29.89 in1012.2 mb 0.00 in0.0 mm 0.00 in0.0 mm 0.00 in0.0 mm
04:25 AM 56.4°F13.6°C 55.8°F13.2°C 98% 0.4 mph E0.6 kmh E 2.7 mph4.3 kmh 29.89 in1012.2 mb 0.00 in0.0 mm 0.00 in0.0 mm 0.00 in0.0 mm
04:20 AM 56.3°F13.5°C 55.7°F13.2°C 98% 0.6 mph ESE1.0 kmh ESE 2.9 mph4.7 kmh 29.89 in1012.2 mb 0.00 in0.0 mm 0.00 in0.0 mm 0.00 in0.0 mm
04:15 AM 56.4°F13.6°C 55.8°F13.2°C 98% Calm Calm -- 29.89 in1012.2 mb 0.00 in0.0 mm 0.00 in0.0 mm 0.00 in0.0 mm
04:10 AM 56.6°F13.7°C 56.0°F13.3°C 98% 0.5 mph ESE0.8 kmh ESE 2.7 mph4.3 kmh 29.89 in1012.2 mb 0.00 in0.0 mm 0.00 in0.0 mm 0.00 in0.0 mm
04:05 AM 56.5°F13.6°C 55.9°F13.3°C 98% 0.6 mph ESE1.0 kmh ESE 3.8 mph6.1 kmh 29.89 in1012.2 mb 0.00 in0.0 mm 0.00 in0.0 mm 0.00 in0.0 mm
04:00 AM 56.5°F13.6°C 55.9°F13.3°C 98% 0.9 mph SE1.4 kmh SE 3.4 mph5.5 kmh 29.89 in1012.2 mb 0.00 in0.0 mm 0.00 in0.0 mm 0.00 in0.0 mm
03:55 AM 56.5°F13.6°C 55.9°F13.3°C 98% 0.4 mph S0.6 kmh S 2.7 mph4.3 kmh 29.89 in1012.2 mb 0.00 in0.0 mm 0.00 in0.0 mm 0.00 in0.0 mm
03:50 AM 56.5°F13.6°C 55.9°F13.3°C 98% 1.2 mph SE1.9 kmh SE 2.9 mph4.7 kmh 29.90 in1012.5 mb 0.00 in0.0 mm 0.00 in0.0 mm 0.00 in0.0 mm
03:45 AM 56.4°F13.6°C 55.8°F13.2°C 98% 1.2 mph ESE1.9 kmh ESE 3.4 mph5.5 kmh 29.92 in1013.2 mb 0.00 in0.0 mm 0.00 in0.0 mm 0.00 in0.0 mm
03:40 AM 56.1°F13.4°C 55.6°F13.1°C 98% 1.1 mph SE1.8 kmh SE 2.9 mph4.7 kmh 29.92 in1013.2 mb 0.00 in0.0 mm 0.00 in0.0 mm 0.00 in0.0 mm
03:35 AM 56.0°F13.3°C 55.4°F13.0°C 98% 1.2 mph S1.9 kmh S 3.6 mph5.8 kmh 29.92 in1013.2 mb 0.00 in0.0 mm 0.00 in0.0 mm 0.00 in0.0 mm
03:30 AM 55.8°F13.2°C 55.2°F12.9°C 98% 0.5 mph SE0.8 kmh SE 2.0 mph3.2 kmh 29.92 in1013.2 mb 0.00 in0.0 mm 0.00 in0.0 mm 0.00 in0.0 mm
03:25 AM 55.6°F13.1°C 55.1°F12.8°C 98% 1.1 mph SE1.8 kmh SE 4.3 mph6.9 kmh 29.92 in1013.2 mb 0.00 in0.0 mm 0.00 in0.0 mm 0.00 in0.0 mm
03:20 AM 55.3°F12.9°C 54.7°F12.6°C 98% 1.3 mph SSE2.1 kmh SSE 2.9 mph4.7 kmh 29.91 in1012.9 mb 0.00 in0.0 mm 0.00 in0.0 mm 0.00 in0.0 mm
03:15 AM 55.1°F12.8°C 54.6°F12.6°C 98% 1.0 mph ESE1.6 kmh ESE 3.8 mph6.1 kmh 29.89 in1012.2 mb 0.00 in0.0 mm 0.00 in0.0 mm 0.00 in0.0 mm
03:10 AM 54.7°F12.6°C 54.1°F12.3°C 98% 0.7 mph ESE1.1 kmh ESE 2.7 mph4.3 kmh 29.89 in1012.2 mb 0.00 in0.0 mm 0.00 in0.0 mm 0.00 in0.0 mm
03:05 AM 54.5°F12.5°C 53.9°F12.2°C 98% 0.2 mph ESE0.3 kmh ESE 1.3 mph2.1 kmh 29.89 in1012.2 mb 0.00 in0.0 mm 0.00 in0.0 mm 0.00 in0.0 mm
03:00 AM 54.5°F12.5°C 53.9°F12.2°C 98% 1.1 mph E1.8 kmh E 3.1 mph5.0 kmh 29.89 in1012.2 mb 0.00 in0.0 mm 0.00 in0.0 mm 0.00 in0.0 mm
02:55 AM 54.5°F12.5°C 53.9°F12.2°C 98% 0.8 mph ESE1.3 kmh ESE 1.8 mph2.9 kmh 29.89 in1012.2 mb 0.00 in0.0 mm 0.00 in0.0 mm 0.00 in0.0 mm
02:50 AM 54.5°F12.5°C 53.9°F12.2°C 98% 1.2 mph ESE1.9 kmh ESE 2.0 mph3.2 kmh 29.89 in1012.2 mb 0.00 in0.0 mm 0.00 in0.0 mm 0.00 in0.0 mm
02:45 AM 54.5°F12.5°C 53.9°F12.2°C 98% 1.0 mph ESE1.6 kmh ESE 2.0 mph3.2 kmh 29.89 in1012.2 mb 0.00 in0.0 mm 0.00 in0.0 mm 0.00 in0.0 mm
02:40 AM 54.4°F12.4°C 53.9°F12.2°C 98% 0.8 mph ESE1.3 kmh ESE 2.5 mph4.0 kmh 29.89 in1012.2 mb 0.00 in0.0 mm 0.00 in0.0 mm 0.00 in0.0 mm
02:35 AM 54.3°F12.4°C 53.8°F12.1°C 98% 0.4 mph ESE0.6 kmh ESE 1.8 mph2.9 kmh 29.89 in1012.2 mb 0.00 in0.0 mm 0.00 in0.0 mm 0.00 in0.0 mm
02:30 AM 54.3°F12.4°C 53.8°F12.1°C 98% 0.3 mph ESE0.5 kmh ESE 1.6 mph2.6 kmh 29.89 in1012.2 mb 0.00 in0.0 mm 0.00 in0.0 mm 0.00 in0.0 mm
02:25 AM 54.3°F12.4°C 53.8°F12.1°C 98% Calm Calm 2.0 mph3.2 kmh 29.89 in1012.2 mb 0.00 in0.0 mm 0.00 in0.0 mm 0.00 in0.0 mm
02:20 AM 54.3°F12.4°C 53.8°F12.1°C 98% 0.6 mph E1.0 kmh E 1.8 mph2.9 kmh 29.90 in1012.5 mb 0.00 in0.0 mm 0.00 in0.0 mm 0.00 in0.0 mm
02:15 AM 54.3°F12.4°C 53.8°F12.1°C 98% 0.2 mph E0.3 kmh E 1.6 mph2.6 kmh 29.92 in1013.2 mb 0.00 in0.0 mm 0.00 in0.0 mm 0.00 in0.0 mm
02:10 AM 54.3°F12.4°C 53.7°F12.1°C 98% 0.6 mph E1.0 kmh E 1.8 mph2.9 kmh 29.92 in1013.2 mb 0.00 in0.0 mm 0.00 in0.0 mm 0.00 in0.0 mm
02:05 AM 54.1°F12.3°C 53.6°F12.0°C 98% 0.1 mph ESE0.2 kmh ESE 1.3 mph2.1 kmh 29.92 in1013.2 mb 0.00 in0.0 mm 0.00 in0.0 mm 0.00 in0.0 mm
02:00 AM 54.2°F12.3°C 53.7°F12.1°C 98% 0.1 mph SE0.2 kmh SE 1.8 mph2.9 kmh 29.92 in1013.2 mb 0.00 in0.0 mm 0.00 in0.0 mm 0.00 in0.0 mm
01:55 AM 54.1°F12.3°C 53.6°F12.0°C 98% 0.1 mph SE0.2 kmh SE 1.6 mph2.6 kmh 29.92 in1013.2 mb 0.00 in0.0 mm 0.00 in0.0 mm 0.00 in0.0 mm
01:50 AM 54.0°F12.2°C 53.4°F11.9°C 98% 0.5 mph SE0.8 kmh SE 2.9 mph4.7 kmh 29.91 in1012.9 mb 0.00 in0.0 mm 0.00 in0.0 mm 0.00 in0.0 mm
01:45 AM 53.7°F12.1°C 53.2°F11.8°C 98% Calm Calm -- 29.89 in1012.2 mb 0.00 in0.0 mm 0.00 in0.0 mm 0.00 in0.0 mm
01:40 AM 53.6°F12.0°C 53.0°F11.7°C 98% Calm Calm -- 29.89 in1012.2 mb 0.00 in0.0 mm 0.00 in0.0 mm 0.00 in0.0 mm
01:35 AM 53.6°F12.0°C 53.0°F11.7°C 98% Calm Calm -- 29.89 in1012.2 mb 0.00 in0.0 mm 0.00 in0.0 mm 0.00 in0.0 mm
01:30 AM 53.6°F12.0°C 53.1°F11.7°C 98% Calm Calm -- 29.89 in1012.2 mb 0.00 in0.0 mm 0.00 in0.0 mm 0.00 in0.0 mm
01:25 AM 53.8°F12.1°C 53.2°F11.8°C 98% Calm Calm -- 29.89 in1012.2 mb 0.00 in0.0 mm 0.00 in0.0 mm 0.00 in0.0 mm
01:20 AM 53.8°F12.1°C 53.2°F11.8°C 98% Calm Calm -- 29.89 in1012.2 mb 0.00 in0.0 mm 0.00 in0.0 mm 0.00 in0.0 mm
01:15 AM 54.0°F12.2°C 53.5°F11.9°C 98% Calm Calm -- 29.89 in1012.2 mb 0.00 in0.0 mm 0.00 in0.0 mm 0.00 in0.0 mm
01:10 AM 54.3°F12.4°C 53.8°F12.1°C 98% Calm Calm -- 29.89 in1012.2 mb 0.00 in0.0 mm 0.00 in0.0 mm 0.00 in0.0 mm
01:05 AM 54.4°F12.4°C 53.8°F12.1°C 98% Calm Calm -- 29.88 in1011.9 mb 0.00 in0.0 mm 0.00 in0.0 mm 0.00 in0.0 mm
01:00 AM 54.6°F12.6°C 54.0°F12.2°C 98% Calm Calm 1.1 mph1.8 kmh 29.86 in1011.2 mb 0.00 in0.0 mm 0.00 in0.0 mm 0.00 in0.0 mm
12:55 AM 54.7°F12.6°C 54.1°F12.3°C 98% 0.3 mph SE0.5 kmh SE 1.6 mph2.6 kmh 29.86 in1011.2 mb 0.00 in0.0 mm 0.00 in0.0 mm 0.00 in0.0 mm
12:50 AM 54.9°F12.7°C 54.3°F12.4°C 98% 0.1 mph SE0.2 kmh SE 1.3 mph2.1 kmh 29.87 in1011.5 mb 0.00 in0.0 mm 0.00 in0.0 mm 0.00 in0.0 mm
12:45 AM 54.9°F12.7°C 54.3°F12.4°C 98% 0.1 mph SSE0.2 kmh SSE 1.8 mph2.9 kmh 29.89 in1012.2 mb 0.00 in0.0 mm 0.00 in0.0 mm 0.00 in0.0 mm
12:40 AM 55.0°F12.8°C 54.4°F12.4°C 98% 0.1 mph S0.2 kmh S 1.3 mph2.1 kmh 29.89 in1012.2 mb 0.00 in0.0 mm 0.00 in0.0 mm 0.00 in0.0 mm
12:35 AM 55.0°F12.8°C 54.5°F12.5°C 98% 0.2 mph S0.3 kmh S 2.0 mph3.2 kmh 29.89 in1012.2 mb 0.00 in0.0 mm 0.00 in0.0 mm 0.00 in0.0 mm
12:30 AM 55.1°F12.8°C 54.5°F12.5°C 98% Calm Calm 1.3 mph2.1 kmh 29.89 in1012.2 mb 0.00 in0.0 mm 0.00 in0.0 mm 0.00 in0.0 mm
12:25 AM 55.1°F12.8°C 54.6°F12.6°C 98% 0.7 mph SSW1.1 kmh SSW 2.7 mph4.3 kmh 29.89 in1012.2 mb 0.00 in0.0 mm 0.00 in0.0 mm 0.00 in0.0 mm
12:20 AM 55.1°F12.8°C 54.5°F12.5°C 98% 0.4 mph S0.6 kmh S 2.5 mph4.0 kmh 29.89 in1012.2 mb 0.00 in0.0 mm 0.00 in0.0 mm 0.00 in0.0 mm
12:15 AM 55.2°F12.9°C 54.7°F12.6°C 98% 0.2 mph SSE0.3 kmh SSE 1.8 mph2.9 kmh 29.89 in1012.2 mb 0.00 in0.0 mm 0.00 in0.0 mm 0.00 in0.0 mm
12:10 AM 55.2°F12.9°C 54.7°F12.6°C 98% 0.2 mph SE0.3 kmh SE 1.8 mph2.9 kmh 29.89 in1012.2 mb 0.00 in0.0 mm 0.00 in0.0 mm 0.00 in0.0 mm
12:05 AM 55.2°F12.9°C 54.7°F12.6°C 98% 0.7 mph SSE1.1 kmh SSE 1.8 mph2.9 kmh 29.89 in1012.2 mb 0.00 in0.0 mm 0.00 in0.0 mm 0.00 in0.0 mm
12:00 AM 55.4°F13.0°C 54.8°F12.7°C 98% 0.2 mph S0.3 kmh S 2.5 mph4.0 kmh 29.89 in1012.2 mb 0.00 in0.0 mm 0.00 in0.0 mm 0.00 in0.0 mm